createdAt,value
2023-03-31T00:02:03.363Z,98881.73
2023-03-31T00:11:37.438Z,98817.95
2023-03-31T00:21:11.919Z,98825.35
2023-03-31T00:30:45.706Z,98843.25
2023-03-31T00:40:21.175Z,98813.53
2023-03-31T00:49:53.227Z,98795.28
2023-03-31T00:59:26.272Z,98767.03
2023-03-31T01:08:59.967Z,98764.91
2023-03-31T01:18:35.376Z,98742.06
2023-03-31T01:28:07.510Z,98725.56
2023-03-31T01:37:40.994Z,98696.89
2023-03-31T01:47:14.596Z,98680.58
2023-03-31T01:56:50.326Z,98653.41
2023-03-31T02:06:24.395Z,98640.28
2023-03-31T02:15:58.509Z,98628.74
2023-03-31T02:25:30.964Z,98609.48
2023-03-31T02:35:04.852Z,98607.36
2023-03-31T02:44:40.482Z,98590.50
2023-03-31T02:54:13.016Z,98557.06
2023-03-31T03:03:48.667Z,98505.92
2023-03-31T03:13:22.591Z,98486.67
2023-03-31T03:22:54.797Z,98473.35
2023-03-31T03:32:28.410Z,98444.33
2023-03-31T03:42:03.540Z,98448.14
2023-03-31T03:51:37.400Z,98376.70
2023-03-31T04:01:11.041Z,98373.38
2023-03-31T04:10:43.116Z,98391.56
2023-03-31T04:20:18.440Z,98380.64
2023-03-31T04:29:50.572Z,98353.75
2023-03-31T04:39:25.721Z,98336.91
2023-03-31T04:48:57.823Z,98347.38
2023-03-31T04:58:33.208Z,98338.03
2023-03-31T05:08:04.787Z,98339.69
2023-03-31T05:17:40.131Z,98311.95
2023-03-31T05:27:12.425Z,98284.31
2023-03-31T05:36:46.373Z,98249.00
2023-03-31T05:46:19.894Z,98228.53
2023-03-31T05:55:55.511Z,98194.33
2023-03-31T06:05:27.626Z,98150.62
2023-03-31T06:15:01.452Z,98126.17
2023-03-31T06:24:36.786Z,98124.88
2023-03-31T06:34:10.460Z,98080.78
2023-03-31T06:43:42.281Z,98072.55
2023-03-31T06:53:16.375Z,98056.02
2023-03-31T07:02:52.045Z,98053.62
2023-03-31T07:12:24.437Z,98062.84
2023-03-31T07:21:59.996Z,98094.02
2023-03-31T07:31:31.630Z,98100.86
2023-03-31T07:32:35.737Z,98099.03
2023-03-31T07:42:08.945Z,98077.13
2023-03-31T07:51:40.864Z,98088.80
2023-03-31T08:01:16.562Z,98092.05
2023-03-31T08:10:51.179Z,98098.97
2023-03-31T08:20:23.360Z,98097.55
2023-03-31T08:29:58.840Z,98055.16
2023-03-31T08:31:01.214Z,98065.95
2023-03-31T08:32:05.351Z,98071.09
2023-03-31T08:41:36.595Z,98049.78
2023-03-31T08:42:40.631Z,98051.28
2023-03-31T08:43:44.571Z,98050.72
2023-03-31T08:44:46.895Z,98050.08
2023-03-31T08:45:49.267Z,98047.14
2023-03-31T08:46:51.723Z,98043.61
2023-03-31T08:47:54.270Z,98047.55
2023-03-31T08:48:56.602Z,98031.63
2023-03-31T08:58:29.217Z,98032.48
2023-03-31T08:59:31.845Z,98041.77
2023-03-31T09:00:35.802Z,98039.48
2023-03-31T09:01:48.299Z,98034.08
2023-03-31T09:02:40.629Z,98035.31
2023-03-31T09:03:43.095Z,98042.09
2023-03-31T09:04:45.338Z,98034.34
2023-03-31T09:05:59.185Z,98040.20
2023-03-31T09:06:51.879Z,98036.67
2023-03-31T09:07:54.206Z,98033.72
2023-03-31T09:08:58.188Z,98035.13
2023-03-31T09:10:00.591Z,98027.16
2023-03-31T09:11:04.488Z,98033.38
2023-03-31T09:12:06.808Z,98028.39
2023-03-31T09:13:09.183Z,98032.86
2023-03-31T09:14:11.614Z,98029.31
2023-03-31T09:15:16.008Z,98028.63
2023-03-31T09:16:16.906Z,98033.64
2023-03-31T09:17:18.896Z,98034.17
2023-03-31T09:18:24.876Z,98036.45
2023-03-31T09:19:26.893Z,98033.98
2023-03-31T09:20:30.768Z,98031.02
2023-03-31T09:21:32.843Z,98036.52
2023-03-31T09:22:35.260Z,98026.13
2023-03-31T09:23:39.231Z,98035.45
2023-03-31T09:24:41.504Z,98030.09
2023-03-31T09:25:45.603Z,98024.51
2023-03-31T09:26:47.852Z,98028.96
2023-03-31T09:27:50.397Z,98018.20
2023-03-31T09:28:52.739Z,98014.00
2023-03-31T09:38:23.766Z,98013.69
2023-03-31T09:39:27.690Z,98012.67
2023-03-31T09:40:31.548Z,98011.81
2023-03-31T09:41:34.759Z,98014.69
2023-03-31T09:51:06.311Z,98002.23
2023-03-31T09:52:10.176Z,97987.87
2023-03-31T09:53:12.471Z,97975.83
2023-03-31T09:54:24.917Z,97966.33
2023-03-31T09:55:38.705Z,97973.00
2023-03-31T09:56:30.834Z,97972.33
2023-03-31T10:06:02.293Z,98004.34
2023-03-31T10:07:04.565Z,98035.09
2023-03-31T10:08:07.029Z,98068.22
2023-03-31T10:09:09.416Z,98059.14
2023-03-31T10:10:13.262Z,98033.17
2023-03-31T10:11:14.161Z,98034.83
2023-03-31T10:12:16.618Z,98013.38
2023-03-31T10:13:20.637Z,98003.50
2023-03-31T10:14:22.879Z,98016.02
2023-03-31T10:15:25.240Z,98023.08
2023-03-31T10:16:27.751Z,98026.61
2023-03-31T10:17:30.453Z,98019.88
2023-03-31T10:18:32.608Z,98007.58
2023-03-31T10:19:34.890Z,98020.97
2023-03-31T10:20:37.300Z,98018.61
2023-03-31T10:21:39.823Z,98024.44
2023-03-31T10:22:43.763Z,98011.84
2023-03-31T10:23:46.104Z,98020.73
2023-03-31T10:24:48.544Z,98016.78
2023-03-31T10:25:52.521Z,98015.87
2023-03-31T10:26:54.830Z,98016.23
2023-03-31T10:27:57.242Z,98011.86
2023-03-31T10:29:01.294Z,98004.80
2023-03-31T10:30:03.651Z,97993.58
2023-03-31T10:31:06.242Z,98000.53
2023-03-31T10:32:08.466Z,97993.70
2023-03-31T10:33:21.742Z,97994.86
2023-03-31T10:34:14.814Z,97991.97
2023-03-31T10:35:17.173Z,97991.44
2023-03-31T10:36:19.706Z,97982.58
2023-03-31T10:37:23.721Z,97980.77
2023-03-31T10:38:27.675Z,97975.24
2023-03-31T10:39:29.934Z,97973.80
2023-03-31T10:40:32.464Z,97961.29
2023-03-31T10:41:36.395Z,97961.42
2023-03-31T10:42:38.711Z,97956.27
2023-03-31T10:43:41.183Z,97957.45
2023-03-31T10:44:45.157Z,97957.13
2023-03-31T10:45:47.505Z,97956.89
2023-03-31T10:46:49.959Z,97957.17
2023-03-31T10:47:52.422Z,97954.14
2023-03-31T10:48:54.764Z,97950.70
2023-03-31T10:49:59.853Z,97952.75
2023-03-31T10:51:01.983Z,97955.70
2023-03-31T10:52:04.472Z,97948.86
2023-03-31T10:53:06.819Z,97955.88
2023-03-31T10:54:09.296Z,97946.28
2023-03-31T10:55:11.755Z,97945.70
2023-03-31T10:56:14.360Z,97949.42
2023-03-31T10:57:16.798Z,97946.50
2023-03-31T10:58:19.570Z,97947.48
2023-03-31T10:59:21.901Z,97943.49
2023-03-31T11:00:24.330Z,97937.79
2023-03-31T11:01:26.815Z,97942.31
2023-03-31T11:02:29.242Z,97940.77
2023-03-31T11:03:33.392Z,97944.83
2023-03-31T11:04:35.592Z,97940.58
2023-03-31T11:05:38.161Z,97946.23
2023-03-31T11:06:40.376Z,97942.19
2023-03-31T11:07:42.830Z,97941.30
2023-03-31T11:08:45.332Z,97942.33
2023-03-31T11:09:47.639Z,97937.88
2023-03-31T11:10:50.024Z,97938.22
2023-03-31T11:11:54.290Z,97932.66
2023-03-31T11:12:56.347Z,97934.69
2023-03-31T11:13:58.775Z,97934.13
2023-03-31T11:15:01.226Z,97945.12
2023-03-31T11:16:03.690Z,97936.09
2023-03-31T11:17:07.836Z,97929.70
2023-03-31T11:18:10.076Z,97937.98
2023-03-31T11:19:12.517Z,97941.28
2023-03-31T11:20:14.976Z,97929.29
2023-03-31T11:21:17.408Z,97930.45
2023-03-31T11:22:19.896Z,97932.81
2023-03-31T11:23:22.371Z,97931.18
2023-03-31T11:24:26.373Z,97921.34
2023-03-31T11:25:28.646Z,97926.42
2023-03-31T11:26:31.148Z,97922.48
2023-03-31T11:27:33.576Z,97936.64
2023-03-31T11:28:37.639Z,97921.89
2023-03-31T11:29:40.051Z,97924.80
2023-03-31T11:30:44.127Z,97926.05
2023-03-31T11:31:48.065Z,97918.90
2023-03-31T11:32:52.014Z,97911.28
2023-03-31T11:33:54.267Z,97918.23
2023-03-31T11:34:56.709Z,97914.91
2023-03-31T11:36:00.915Z,97909.80
2023-03-31T11:37:03.172Z,97929.25
2023-03-31T11:38:05.648Z,97921.11
2023-03-31T11:39:08.096Z,97905.91
2023-03-31T11:40:12.127Z,97913.47
2023-03-31T11:41:14.410Z,97913.16
2023-03-31T11:42:16.866Z,97909.09
2023-03-31T11:43:20.880Z,97920.56
2023-03-31T11:44:23.192Z,97909.79
2023-03-31T11:45:25.719Z,97910.03
2023-03-31T11:46:28.167Z,97914.15
2023-03-31T11:47:32.220Z,97920.10
2023-03-31T11:48:36.130Z,97920.22
2023-03-31T11:49:38.433Z,97915.51
2023-03-31T11:50:40.923Z,97919.25
2023-03-31T11:51:43.315Z,97913.11
2023-03-31T11:52:47.331Z,97907.16
2023-03-31T11:53:51.245Z,97919.22
2023-03-31T11:54:53.686Z,97918.27
2023-03-31T11:55:56.254Z,97908.08
2023-03-31T11:57:00.219Z,97908.72
2023-03-31T11:58:02.416Z,97907.39
2023-03-31T11:59:06.501Z,97916.12
2023-03-31T12:00:08.833Z,97901.17
2023-03-31T12:01:11.336Z,97892.91
2023-03-31T12:02:15.322Z,97900.92
2023-03-31T12:03:19.381Z,97895.93
2023-03-31T12:04:21.645Z,97881.80
2023-03-31T12:05:24.049Z,97897.27
2023-03-31T12:06:26.499Z,97904.76
2023-03-31T12:07:28.925Z,97908.58
2023-03-31T12:08:31.460Z,97918.69
2023-03-31T12:09:33.876Z,97918.98
2023-03-31T12:10:36.306Z,97913.70
2023-03-31T12:11:38.768Z,97911.52
2023-03-31T12:12:42.806Z,97914.89
2023-03-31T12:13:45.054Z,97899.95
2023-03-31T12:14:49.190Z,97893.08
2023-03-31T12:15:53.235Z,97895.84
2023-03-31T12:16:55.496Z,97901.20
2023-03-31T12:17:57.958Z,97886.38
2023-03-31T12:19:00.393Z,97872.56
2023-03-31T12:20:02.836Z,97895.85
2023-03-31T12:21:05.340Z,97873.08
2023-03-31T12:22:07.853Z,97876.38
2023-03-31T12:23:10.321Z,97875.55
2023-03-31T12:24:12.788Z,97876.85
2023-03-31T12:25:15.482Z,97883.47
2023-03-31T12:26:17.885Z,97884.81
2023-03-31T12:27:20.345Z,97874.74
2023-03-31T12:28:24.298Z,97886.98
2023-03-31T12:29:26.675Z,97878.48
2023-03-31T12:30:29.557Z,97877.85
2023-03-31T12:31:32.711Z,97879.98
2023-03-31T12:32:34.876Z,97868.50
2023-03-31T12:33:38.079Z,97872.80
2023-03-31T12:34:40.394Z,97869.88
2023-03-31T12:35:44.519Z,97871.45
2023-03-31T12:36:48.904Z,97868.38
2023-03-31T12:37:51.594Z,97880.80
2023-03-31T12:38:56.631Z,97876.71
2023-03-31T12:39:59.051Z,97872.17
2023-03-31T12:41:01.488Z,97870.95
2023-03-31T12:42:04.751Z,97869.47
2023-03-31T12:43:07.340Z,97880.13
2023-03-31T12:44:11.465Z,97873.61
2023-03-31T12:45:13.893Z,97874.20
2023-03-31T12:46:18.018Z,97887.13
2023-03-31T12:47:22.023Z,97882.48
2023-03-31T12:48:24.211Z,97877.73
2023-03-31T12:49:26.648Z,97887.58
2023-03-31T12:50:29.061Z,97888.50
2023-03-31T12:51:33.061Z,97890.06
2023-03-31T12:52:35.569Z,97903.36
2023-03-31T12:53:38.223Z,97904.95
2023-03-31T12:54:42.173Z,97887.67
2023-03-31T12:55:45.012Z,97894.92
2023-03-31T12:56:48.772Z,97899.56
2023-03-31T12:57:51.192Z,97900.14
2023-03-31T12:58:53.445Z,97886.09
2023-03-31T12:59:57.892Z,97895.94
2023-03-31T13:00:59.957Z,97885.14
2023-03-31T13:02:14.802Z,97903.68
2023-03-31T13:03:23.367Z,97903.29
2023-03-31T13:04:28.081Z,97911.23
2023-03-31T13:05:31.810Z,97921.73
2023-03-31T13:06:33.915Z,97915.30
2023-03-31T13:07:36.159Z,97903.42
2023-03-31T13:08:38.657Z,97914.28
2023-03-31T13:09:40.916Z,97920.28
2023-03-31T13:10:43.267Z,97914.23
2023-03-31T13:11:45.445Z,97917.49
2023-03-31T13:12:48.255Z,97910.47
2023-03-31T13:14:52.638Z,97912.30
2023-03-31T13:15:55.007Z,97890.23
2023-03-31T13:16:57.458Z,97888.97
2023-03-31T13:17:59.828Z,97876.93
2023-03-31T13:19:02.166Z,97882.59
2023-03-31T13:20:04.441Z,97875.04
2023-03-31T13:21:06.858Z,97881.13
2023-03-31T13:22:09.054Z,97882.01
2023-03-31T13:23:11.410Z,97888.55
2023-03-31T13:24:13.788Z,97885.27
2023-03-31T13:25:16.237Z,97887.67
2023-03-31T13:26:18.857Z,97897.08
2023-03-31T13:27:21.313Z,97885.05
2023-03-31T13:28:23.502Z,97881.59
2023-03-31T13:29:25.902Z,97878.34
2023-03-31T13:30:28.396Z,97875.45
2023-03-31T13:31:30.655Z,97863.20
2023-03-31T13:32:32.878Z,97865.33
2023-03-31T13:33:35.288Z,97856.71
2023-03-31T13:34:39.282Z,97859.72
2023-03-31T13:35:43.235Z,97859.93
2023-03-31T13:36:47.078Z,97872.78
2023-03-31T13:37:50.984Z,97868.87
2023-03-31T13:38:54.903Z,97861.07
2023-03-31T13:39:57.155Z,97858.45
2023-03-31T13:40:59.609Z,97867.11
2023-03-31T13:42:02.149Z,97869.17
2023-03-31T13:43:06.146Z,97865.44
2023-03-31T13:44:08.472Z,97867.95
2023-03-31T13:45:12.503Z,97860.88
2023-03-31T13:46:16.466Z,97857.04
2023-03-31T13:47:20.283Z,97856.02
2023-03-31T13:48:24.259Z,97852.19
2023-03-31T13:49:26.542Z,97854.38
2023-03-31T13:50:28.968Z,97853.78
2023-03-31T13:51:31.430Z,97843.51
2023-03-31T13:52:33.862Z,97841.73
2023-03-31T13:53:36.317Z,97842.00
2023-03-31T13:54:38.803Z,97838.42
2023-03-31T13:55:41.262Z,97841.37
2023-03-31T13:56:43.702Z,97843.38
2023-03-31T13:57:47.819Z,97850.03
2023-03-31T13:58:51.616Z,97843.14
2023-03-31T13:59:53.945Z,97842.98
2023-03-31T14:00:56.417Z,97843.17
2023-03-31T14:01:58.982Z,97836.59
2023-03-31T14:03:01.358Z,97843.38
2023-03-31T14:04:05.224Z,97844.06
2023-03-31T14:05:09.155Z,97839.41
2023-03-31T14:06:11.470Z,97838.09
2023-03-31T14:07:14.124Z,97832.65
2023-03-31T14:08:16.353Z,97830.33
2023-03-31T14:09:20.430Z,97835.22
2023-03-31T14:10:22.764Z,97829.64
2023-03-31T14:11:26.826Z,97836.30
2023-03-31T14:12:29.243Z,97823.45
2023-03-31T14:13:31.706Z,97821.84
2023-03-31T14:14:34.150Z,97830.56
2023-03-31T14:15:36.604Z,97820.50
2023-03-31T14:16:39.082Z,97823.38
2023-03-31T14:17:41.613Z,97833.52
2023-03-31T14:18:45.622Z,97818.13
2023-03-31T14:19:47.900Z,97811.12
2023-03-31T14:20:51.926Z,97818.71
2023-03-31T14:21:54.312Z,97823.27
2023-03-31T14:22:58.326Z,97816.44
2023-03-31T14:24:00.634Z,97815.57
2023-03-31T14:25:03.048Z,97814.72
2023-03-31T14:26:05.483Z,97820.73
2023-03-31T14:27:07.995Z,97821.20
2023-03-31T14:28:10.455Z,97811.16
2023-03-31T14:29:14.526Z,97819.74
2023-03-31T14:30:16.799Z,97822.39
2023-03-31T14:31:19.288Z,97823.75
2023-03-31T14:32:21.751Z,97817.11
2023-03-31T14:33:24.201Z,97821.33
2023-03-31T14:34:28.249Z,97818.49
2023-03-31T14:35:30.659Z,97819.71
2023-03-31T14:36:33.092Z,97835.45
2023-03-31T14:37:37.069Z,97838.14
2023-03-31T14:38:39.363Z,97828.54
2023-03-31T14:39:41.759Z,97834.67
2023-03-31T14:40:45.741Z,97833.28
2023-03-31T14:41:49.724Z,97838.46
2023-03-31T14:42:52.078Z,97844.34
2023-03-31T14:43:54.465Z,97857.75
2023-03-31T14:44:56.886Z,97864.58
2023-03-31T14:46:00.944Z,97856.38
2023-03-31T14:47:04.828Z,97843.51
2023-03-31T14:48:07.194Z,97861.81
2023-03-31T14:49:09.566Z,97858.89
2023-03-31T14:50:11.954Z,97871.20
2023-03-31T14:51:14.384Z,97877.92
2023-03-31T14:52:16.950Z,97861.48
2023-03-31T14:53:21.341Z,97872.71
2023-03-31T14:54:23.632Z,97847.73
2023-03-31T14:55:28.581Z,97846.33
2023-03-31T14:56:28.424Z,97846.73
2023-03-31T14:57:30.837Z,97844.66
2023-03-31T14:58:33.276Z,97852.03
2023-03-31T14:59:35.723Z,97836.98
2023-03-31T15:00:38.154Z,97842.29
2023-03-31T15:01:40.506Z,97839.88
2023-03-31T15:02:42.956Z,97828.78
2023-03-31T15:03:45.389Z,97834.83
2023-03-31T15:04:47.806Z,97828.30
2023-03-31T15:05:50.461Z,97833.33
2023-03-31T15:06:52.720Z,97832.48
2023-03-31T15:07:56.838Z,97828.58
2023-03-31T15:09:00.789Z,97823.71
2023-03-31T15:10:03.124Z,97824.05
2023-03-31T15:11:12.723Z,97828.47
2023-03-31T15:12:08.012Z,97824.66
2023-03-31T15:13:10.535Z,97829.59
2023-03-31T15:14:12.923Z,97836.15
2023-03-31T15:15:15.423Z,97829.19
2023-03-31T15:16:19.517Z,97825.23
2023-03-31T15:17:22.186Z,97827.47
2023-03-31T15:18:24.685Z,97826.23
2023-03-31T15:19:27.061Z,97820.14
2023-03-31T15:20:31.142Z,97824.24
2023-03-31T15:21:35.167Z,97833.34
2023-03-31T15:22:37.459Z,97820.66
2023-03-31T15:23:41.547Z,97825.69
2023-03-31T15:24:45.481Z,97822.45
2023-03-31T15:25:49.364Z,97829.14
2023-03-31T15:26:51.749Z,97823.94
2023-03-31T15:27:55.858Z,97822.00
2023-03-31T15:28:58.137Z,97819.14
2023-03-31T15:30:00.513Z,97818.30
2023-03-31T15:31:10.380Z,97819.81
2023-03-31T15:32:08.578Z,97823.19
2023-03-31T15:34:13.353Z,97830.66
2023-03-31T15:36:20.085Z,97824.23
2023-03-31T15:37:22.619Z,97824.05
2023-03-31T15:38:25.933Z,97825.58
2023-03-31T15:39:29.194Z,97826.31
2023-03-31T15:40:31.542Z,97819.92
2023-03-31T15:41:34.056Z,97813.44
2023-03-31T15:42:37.010Z,97823.10
2023-03-31T15:43:39.922Z,97824.31
2023-03-31T15:44:43.216Z,97825.63
2023-03-31T15:45:45.458Z,97813.69
2023-03-31T15:46:48.845Z,97818.92
2023-03-31T15:47:52.833Z,97823.84
2023-03-31T15:48:54.811Z,97819.20
2023-03-31T15:49:58.027Z,97818.53
2023-03-31T15:51:00.498Z,97823.19
2023-03-31T15:52:02.885Z,97828.20
2023-03-31T15:53:06.349Z,97827.16
2023-03-31T15:54:08.750Z,97830.28
2023-03-31T15:55:12.276Z,97829.99
2023-03-31T15:56:15.776Z,97831.05
2023-03-31T15:57:19.059Z,97831.81
2023-03-31T15:58:22.302Z,97830.45
2023-03-31T15:59:34.065Z,97835.09
2023-03-31T16:00:28.582Z,97837.02
2023-03-31T16:01:32.098Z,97846.06
2023-03-31T16:02:35.301Z,97841.88
2023-03-31T16:03:41.448Z,97840.55
2023-03-31T16:04:43.685Z,97836.13
2023-03-31T16:05:53.958Z,97841.80
2023-03-31T16:06:49.569Z,97843.31
2023-03-31T16:07:51.777Z,97836.70
2023-03-31T16:08:54.195Z,97844.14
2023-03-31T16:10:02.823Z,97846.89
2023-03-31T16:11:05.800Z,97846.88
2023-03-31T16:12:08.016Z,97841.66
2023-03-31T16:13:10.394Z,97843.38
2023-03-31T16:14:18.376Z,97843.61
2023-03-31T16:15:22.647Z,97845.52
2023-03-31T16:16:24.852Z,97841.73
2023-03-31T16:17:27.244Z,97842.18
2023-03-31T16:18:29.516Z,97840.69
2023-03-31T16:19:32.062Z,97842.13
2023-03-31T16:20:35.408Z,97842.81
2023-03-31T16:21:38.784Z,97844.02
2023-03-31T16:22:41.179Z,97840.80
2023-03-31T16:23:44.606Z,97843.38
2023-03-31T16:24:49.523Z,97842.23
2023-03-31T16:25:51.745Z,97848.68
2023-03-31T16:26:56.612Z,97834.73
2023-03-31T16:27:58.904Z,97844.59
2023-03-31T16:29:02.918Z,97845.05
2023-03-31T16:30:06.892Z,97828.54
2023-03-31T16:31:09.246Z,97822.55
2023-03-31T16:32:11.704Z,97825.19
2023-03-31T16:33:17.920Z,97823.27
2023-03-31T16:34:20.196Z,97828.39
2023-03-31T16:35:23.653Z,97824.41
2023-03-31T16:36:26.157Z,97822.59
2023-03-31T16:37:28.348Z,97821.38
2023-03-31T16:38:32.314Z,97822.22
2023-03-31T16:39:35.735Z,97821.66
2023-03-31T16:40:37.963Z,97821.99
2023-03-31T16:41:40.381Z,97826.58
2023-03-31T16:42:44.939Z,97831.48
2023-03-31T16:43:47.174Z,97827.14
2023-03-31T16:44:56.343Z,97827.74
2023-03-31T16:45:52.149Z,97828.70
2023-03-31T16:46:55.599Z,97817.52
2023-03-31T16:48:01.989Z,97831.23
2023-03-31T16:49:00.446Z,97830.59
2023-03-31T16:50:02.926Z,97825.13
2023-03-31T16:51:06.856Z,97826.52
2023-03-31T16:52:10.513Z,97831.73
2023-03-31T16:53:13.829Z,97829.01
2023-03-31T16:54:16.185Z,97822.41
2023-03-31T16:55:18.444Z,97818.25
2023-03-31T16:56:22.508Z,97818.94
2023-03-31T16:57:24.896Z,97826.83
2023-03-31T16:58:28.320Z,97824.16
2023-03-31T16:59:30.622Z,97822.73
2023-03-31T17:00:33.085Z,97822.86
2023-03-31T17:01:35.627Z,97819.48
2023-03-31T17:02:38.107Z,97823.73
2023-03-31T17:03:40.605Z,97829.93
2023-03-31T17:04:42.969Z,97830.06
2023-03-31T17:05:45.400Z,97822.73
2023-03-31T17:06:47.944Z,97823.59
2023-03-31T17:07:50.714Z,97819.05
2023-03-31T17:08:54.262Z,97821.89
2023-03-31T17:09:57.534Z,97823.13
2023-03-31T17:11:00.088Z,97823.30
2023-03-31T17:12:02.534Z,97825.89
2023-03-31T17:13:06.588Z,97826.02
2023-03-31T17:22:36.670Z,97829.57
2023-03-31T17:23:39.407Z,97826.83
2023-03-31T17:24:42.673Z,97833.30
2023-03-31T17:25:46.060Z,97832.28
2023-03-31T17:26:48.618Z,97836.33
2023-03-31T17:36:21.188Z,97852.49
2023-03-31T17:37:25.357Z,97861.19
2023-03-31T17:46:58.179Z,97880.03
2023-03-31T17:56:30.976Z,97861.16
2023-03-31T18:06:02.555Z,97866.16
2023-03-31T18:15:34.320Z,97878.12
2023-03-31T18:25:07.562Z,97875.71
2023-03-31T18:34:41.873Z,97884.11
2023-03-31T18:44:14.965Z,97898.31
2023-03-31T18:53:50.523Z,97877.97
2023-03-31T19:03:21.796Z,97892.16
2023-03-31T19:12:56.267Z,97892.80
2023-03-31T19:22:30.224Z,97895.84
2023-03-31T19:32:05.130Z,97909.34
2023-03-31T19:41:39.062Z,97906.76
2023-03-31T19:42:46.615Z,97908.83
2023-03-31T19:52:16.013Z,97907.38
2023-03-31T20:01:47.333Z,97894.91
2023-03-31T20:11:18.934Z,97891.18
2023-03-31T20:20:53.180Z,97917.63
2023-03-31T20:30:26.514Z,97919.05
2023-03-31T20:39:58.575Z,97908.09
2023-03-31T20:49:31.714Z,97918.77
2023-03-31T20:59:03.768Z,97923.15
2023-03-31T21:08:35.318Z,97925.97
2023-03-31T21:18:08.883Z,97919.29
2023-03-31T21:27:41.916Z,97927.53
2023-03-31T21:37:17.763Z,97926.36
2023-03-31T21:46:48.497Z,97919.89
2023-03-31T21:56:23.410Z,97923.75
2023-03-31T22:05:58.451Z,97926.13
2023-03-31T22:15:29.959Z,97931.13
2023-03-31T22:25:03.013Z,97922.33
2023-03-31T22:34:36.359Z,97920.75
2023-03-31T22:44:09.074Z,97927.70
2023-03-31T22:53:43.259Z,97915.63
2023-03-31T23:03:18.691Z,97914.48
2023-03-31T23:12:51.569Z,97912.24
2023-03-31T23:22:25.418Z,97915.09
2023-03-31T23:32:01.227Z,97919.27
2023-03-31T23:41:33.537Z,97916.94
2023-03-31T23:51:08.852Z,97918.63
2023-03-31T23:52:11.135Z,97921.92
